sensor_id;sensor_type;location;lat;lon;timestamp;pressure;altitude;pressure_sealevel;temperature;humidity
32298;BME280;18782;48.984;8.548;2023-04-10T00:01:14;100527.00;;;5.10;83.49
32298;BME280;18782;48.984;8.548;2023-04-10T00:03:42;100515.94;;;5.09;84.16
32298;BME280;18782;48.984;8.548;2023-04-10T00:06:11;100522.53;;;5.06;84.74
32298;BME280;18782;48.984;8.548;2023-04-10T00:08:39;100523.31;;;5.05;85.28
32298;BME280;18782;48.984;8.548;2023-04-10T00:11:07;100510.41;;;5.02;85.08
32298;BME280;18782;48.984;8.548;2023-04-10T00:13:34;100507.69;;;4.98;85.68
32298;BME280;18782;48.984;8.548;2023-04-10T00:16:02;100505.75;;;4.94;84.00
32298;BME280;18782;48.984;8.548;2023-04-10T00:18:29;100499.09;;;4.96;84.07
32298;BME280;18782;48.984;8.548;2023-04-10T00:20:57;100506.00;;;4.99;84.15
32298;BME280;18782;48.984;8.548;2023-04-10T00:23:26;100497.66;;;5.02;83.98
32298;BME280;18782;48.984;8.548;2023-04-10T00:25:54;100499.41;;;5.03;84.88
32298;BME280;18782;48.984;8.548;2023-04-10T00:28:21;100504.66;;;5.06;83.76
32298;BME280;18782;48.984;8.548;2023-04-10T00:30:49;100506.44;;;5.07;84.46
32298;BME280;18782;48.984;8.548;2023-04-10T00:33:16;100508.03;;;5.05;84.26
32298;BME280;18782;48.984;8.548;2023-04-10T00:35:44;100508.03;;;5.05;85.31
32298;BME280;18782;48.984;8.548;2023-04-10T00:38:12;100519.81;;;5.03;84.98
32298;BME280;18782;48.984;8.548;2023-04-10T00:40:41;100518.06;;;5.02;84.86
32298;BME280;18782;48.984;8.548;2023-04-10T00:43:08;100520.69;;;5.03;84.65
32298;BME280;18782;48.984;8.548;2023-04-10T00:45:36;100510.41;;;5.02;84.49
32298;BME280;18782;48.984;8.548;2023-04-10T00:48:05;100516.28;;;5.01;84.92
32298;BME280;18782;48.984;8.548;2023-04-10T00:50:32;100509.44;;;5.00;85.89
32298;BME280;18782;48.984;8.548;2023-04-10T00:53:01;100516.13;;;4.97;84.66
32298;BME280;18782;48.984;8.548;2023-04-10T00:55:29;100510.16;;;4.97;84.85
32298;BME280;18782;48.984;8.548;2023-04-10T00:57:58;100509.34;;;4.98;84.97
32298;BME280;18782;48.984;8.548;2023-04-10T01:00:26;100512.59;;;4.95;84.99
32298;BME280;18782;48.984;8.548;2023-04-10T01:02:54;100522.66;;;4.92;84.16
32298;BME280;18782;48.984;8.548;2023-04-10T01:05:22;100517.47;;;4.91;85.71
32298;BME280;18782;48.984;8.548;2023-04-10T01:08:00;100519.13;;;4.90;86.17
32298;BME280;18782;48.984;8.548;2023-04-10T01:10:35;100513.88;;;4.87;85.30
32298;BME280;18782;48.984;8.548;2023-04-10T01:13:10;100503.31;;;4.81;85.11
32298;BME280;18782;48.984;8.548;2023-04-10T01:15:46;100503.00;;;4.75;85.14
32298;BME280;18782;48.984;8.548;2023-04-10T01:18:21;100504.56;;;4.73;85.41
32298;BME280;18782;48.984;8.548;2023-04-10T01:20:50;100509.50;;;4.70;86.22
32298;BME280;18782;48.984;8.548;2023-04-10T01:23:29;100514.22;;;4.64;86.06
32298;BME280;18782;48.984;8.548;2023-04-10T01:26:06;100515.28;;;4.67;86.42
32298;BME280;18782;48.984;8.548;2023-04-10T01:28:59;100517.75;;;4.66;86.32
32298;BME280;18782;48.984;8.548;2023-04-10T01:31:34;100514.69;;;4.57;86.22
32298;BME280;18782;48.984;8.548;2023-04-10T01:34:06;100513.59;;;4.53;86.13
32298;BME280;18782;48.984;8.548;2023-04-10T01:36:39;100511.59;;;4.48;86.62
32298;BME280;18782;48.984;8.548;2023-04-10T01:39:08;100515.72;;;4.45;87.13
32298;BME280;18782;48.984;8.548;2023-04-10T01:41:38;100526.09;;;4.49;86.28
32298;BME280;18782;48.984;8.548;2023-04-10T01:44:12;100527.88;;;4.50;87.53
32298;BME280;18782;48.984;8.548;2023-04-10T01:46:42;100532.59;;;4.43;86.61
32298;BME280;18782;48.984;8.548;2023-04-10T01:49:12;100535.13;;;4.43;87.62
32298;BME280;18782;48.984;8.548;2023-04-10T01:51:42;100533.38;;;4.42;87.31
32298;BME280;18782;48.984;8.548;2023-04-10T01:54:11;100546.13;;;4.42;87.25
32298;BME280;18782;48.984;8.548;2023-04-10T01:56:39;100541.84;;;4.41;86.69
32298;BME280;18782;48.984;8.548;2023-04-10T01:59:08;100545.34;;;4.43;86.09
32298;BME280;18782;48.984;8.548;2023-04-10T02:01:37;100541.63;;;4.38;86.27
32298;BME280;18782;48.984;8.548;2023-04-10T02:04:04;100537.44;;;4.39;87.45
32298;BME280;18782;48.984;8.548;2023-04-10T02:06:40;100540.75;;;4.38;86.02
32298;BME280;18782;48.984;8.548;2023-04-10T02:09:21;100539.81;;;4.36;87.14
32298;BME280;18782;48.984;8.548;2023-04-10T02:11:54;100544.63;;;4.31;87.03
32298;BME280;18782;48.984;8.548;2023-04-10T02:14:24;100537.44;;;4.24;87.17
32298;BME280;18782;48.984;8.548;2023-04-10T02:16:56;100536.44;;;4.22;87.85
32298;BME280;18782;48.984;8.548;2023-04-10T02:19:26;100535.13;;;4.14;87.01
32298;BME280;18782;48.984;8.548;2023-04-10T02:21:54;100534.94;;;4.11;87.87
32298;BME280;18782;48.984;8.548;2023-04-10T02:24:23;100526.47;;;3.97;88.04
32298;BME280;18782;48.984;8.548;2023-04-10T02:26:52;100522.88;;;3.93;88.00
32298;BME280;18782;48.984;8.548;2023-04-10T02:29:21;100519.94;;;3.87;88.57
32298;BME280;18782;48.984;8.548;2023-04-10T02:31:49;100519.75;;;3.84;88.95
32298;BME280;18782;48.984;8.548;2023-04-10T02:34:19;100521.16;;;3.79;88.33
32298;BME280;18782;48.984;8.548;2023-04-10T02:36:46;100518.50;;;3.78;90.07
32298;BME280;18782;48.984;8.548;2023-04-10T02:39:14;100513.50;;;3.79;89.69
32298;BME280;18782;48.984;8.548;2023-04-10T02:41:48;100513.22;;;3.75;88.84
32298;BME280;18782;48.984;8.548;2023-04-10T02:44:16;100513.94;;;3.72;89.34
32298;BME280;18782;48.984;8.548;2023-04-10T02:46:44;100515.47;;;3.70;89.61
32298;BME280;18782;48.984;8.548;2023-04-10T02:49:13;100514.72;;;3.71;89.38
32298;BME280;18782;48.984;8.548;2023-04-10T02:51:42;100512.94;;;3.70;89.33
32298;BME280;18782;48.984;8.548;2023-04-10T02:54:09;100510.41;;;3.70;89.67
32298;BME280;18782;48.984;8.548;2023-04-10T02:56:39;100511.09;;;3.67;89.38
32298;BME280;18782;48.984;8.548;2023-04-10T02:59:07;100505.13;;;3.67;89.47
32298;BME280;18782;48.984;8.548;2023-04-10T03:01:35;100505.81;;;3.64;89.73
32298;BME280;18782;48.984;8.548;2023-04-10T03:04:05;100504.94;;;3.64;89.62
32298;BME280;18782;48.984;8.548;2023-04-10T03:06:37;100504.94;;;3.64;89.33
32298;BME280;18782;48.984;8.548;2023-04-10T03:09:06;100501.50;;;3.63;89.44
32298;BME280;18782;48.984;8.548;2023-04-10T03:11:34;100493.00;;;3.63;89.38
32298;BME280;18782;48.984;8.548;2023-04-10T03:14:01;100501.44;;;3.62;88.97
32298;BME280;18782;48.984;8.548;2023-04-10T03:16:29;100497.13;;;3.61;89.34
32298;BME280;18782;48.984;8.548;2023-04-10T03:18:58;100496.34;;;3.62;88.86
32298;BME280;18782;48.984;8.548;2023-04-10T03:21:25;100489.50;;;3.61;89.09
32298;BME280;18782;48.984;8.548;2023-04-10T03:23:54;100487.72;;;3.60;89.02
32298;BME280;18782;48.984;8.548;2023-04-10T03:26:23;100481.75;;;3.59;89.33
32298;BME280;18782;48.984;8.548;2023-04-10T03:28:51;100483.41;;;3.59;89.22
32298;BME280;18782;48.984;8.548;2023-04-10T03:31:18;100472.44;;;3.60;89.53
32298;BME280;18782;48.984;8.548;2023-04-10T03:33:46;100475.78;;;3.59;89.74
32298;BME280;18782;48.984;8.548;2023-04-10T03:36:14;100468.94;;;3.58;88.81
32298;BME280;18782;48.984;8.548;2023-04-10T03:38:42;100462.09;;;3.57;89.78
32298;BME280;18782;48.984;8.548;2023-04-10T03:41:10;100459.47;;;3.55;89.34
32298;BME280;18782;48.984;8.548;2023-04-10T03:43:40;100453.47;;;3.55;90.11
32298;BME280;18782;48.984;8.548;2023-04-10T03:46:08;100446.63;;;3.54;89.91
32298;BME280;18782;48.984;8.548;2023-04-10T03:48:40;100442.31;;;3.53;89.67
32298;BME280;18782;48.984;8.548;2023-04-10T03:51:09;100441.53;;;3.54;89.39
32298;BME280;18782;48.984;8.548;2023-04-10T03:53:36;100440.56;;;3.52;89.46
32298;BME280;18782;48.984;8.548;2023-04-10T03:56:09;100443.13;;;3.52;89.46
32298;BME280;18782;48.984;8.548;2023-04-10T03:58:36;100437.03;;;3.50;89.45
32298;BME280;18782;48.984;8.548;2023-04-10T04:01:06;100438.03;;;3.52;89.05
32298;BME280;18782;48.984;8.548;2023-04-10T04:03:50;100438.03;;;3.52;89.12
32298;BME280;18782;48.984;8.548;2023-04-10T04:06:26;100436.28;;;3.51;89.30
32298;BME280;18782;48.984;8.548;2023-04-10T04:09:09;100440.19;;;3.46;88.86
32298;BME280;18782;48.984;8.548;2023-04-10T04:11:55;100435.72;;;3.42;89.23
32298;BME280;18782;48.984;8.548;2023-04-10T04:14:45;100439.03;;;3.40;89.30
32298;BME280;18782;48.984;8.548;2023-04-10T04:17:17;100440.78;;;3.42;89.74
32298;BME280;18782;48.984;8.548;2023-04-10T04:19:54;100444.13;;;3.40;88.97
32298;BME280;18782;48.984;8.548;2023-04-10T04:22:22;100451.66;;;3.39;89.04
32298;BME280;18782;48.984;8.548;2023-04-10T04:25:24;100451.78;;;3.40;89.15
32298;BME280;18782;48.984;8.548;2023-04-10T04:28:10;100449.22;;;3.40;89.43
32298;BME280;18782;48.984;8.548;2023-04-10T04:30:59;100455.88;;;3.38;88.89
32298;BME280;18782;48.984;8.548;2023-04-10T04:34:01;100452.72;;;3.43;90.54
32298;BME280;18782;48.984;8.548;2023-04-10T04:36:45;100458.69;;;3.43;90.24
32298;BME280;18782;48.984;8.548;2023-04-10T04:39:32;100459.41;;;3.40;89.40
32298;BME280;18782;48.984;8.548;2023-04-10T04:42:00;100459.41;;;3.40;89.41
32298;BME280;18782;48.984;8.548;2023-04-10T04:44:59;100454.13;;;3.37;89.68
32298;BME280;18782;48.984;8.548;2023-04-10T04:47:56;100457.25;;;3.33;89.03
32298;BME280;18782;48.984;8.548;2023-04-10T04:50:51;100457.38;;;3.35;89.94
32298;BME280;18782;48.984;8.548;2023-04-10T04:53:39;100454.81;;;3.35;89.77
32298;BME280;18782;48.984;8.548;2023-04-10T04:56:14;100462.34;;;3.33;89.78
32298;BME280;18782;48.984;8.548;2023-04-10T04:58:42;100462.06;;;3.29;89.93
32298;BME280;18782;48.984;8.548;2023-04-10T05:01:31;100461.97;;;3.27;89.88
32298;BME280;18782;48.984;8.548;2023-04-10T05:04:17;100457.47;;;3.23;90.14
32298;BME280;18782;48.984;8.548;2023-04-10T05:07:05;100466.09;;;3.25;90.75
32298;BME280;18782;48.984;8.548;2023-04-10T05:09:49;100463.94;;;3.31;90.13
32298;BME280;18782;48.984;8.548;2023-04-10T05:12:36;100468.81;;;3.28;89.64
32298;BME280;18782;48.984;8.548;2023-04-10T05:15:19;100458.84;;;3.31;90.50
32298;BME280;18782;48.984;8.548;2023-04-10T05:18:02;100459.44;;;3.27;90.34
32298;BME280;18782;48.984;8.548;2023-04-10T05:20:49;100460.41;;;3.29;90.21
32298;BME280;18782;48.984;8.548;2023-04-10T05:23:25;100464.88;;;3.33;90.74
32298;BME280;18782;48.984;8.548;2023-04-10T05:26:13;100473.09;;;3.43;89.63
32298;BME280;18782;48.984;8.548;2023-04-10T05:29:04;100474.53;;;3.52;91.00
32298;BME280;18782;48.984;8.548;2023-04-10T05:31:44;100468.41;;;3.63;91.18
32298;BME280;18782;48.984;8.548;2023-04-10T05:34:35;100464.41;;;3.67;89.57
32298;BME280;18782;48.984;8.548;2023-04-10T05:37:09;100461.25;;;3.71;89.63
32298;BME280;18782;48.984;8.548;2023-04-10T05:39:47;100460.81;;;3.78;89.17
32298;BME280;18782;48.984;8.548;2023-04-10T05:42:32;100463.72;;;3.84;90.30
32298;BME280;18782;48.984;8.548;2023-04-10T05:45:11;100461.66;;;3.92;90.94
32298;BME280;18782;48.984;8.548;2023-04-10T05:47:59;100462.69;;;3.96;89.97
32298;BME280;18782;48.984;8.548;2023-04-10T05:50:52;100461.50;;;4.04;88.83
32298;BME280;18782;48.984;8.548;2023-04-10T05:53:39;100470.09;;;4.06;88.93
32298;BME280;18782;48.984;8.548;2023-04-10T05:56:26;100471.50;;;4.15;88.35
32298;BME280;18782;48.984;8.548;2023-04-10T05:59:12;100454.81;;;4.21;88.12
32298;BME280;18782;48.984;8.548;2023-04-10T06:01:57;100461.50;;;4.33;88.98
32298;BME280;18782;48.984;8.548;2023-04-10T06:04:24;100460.25;;;4.71;93.33
32298;BME280;18782;48.984;8.548;2023-04-10T06:06:55;100458.81;;;4.76;89.21
32298;BME280;18782;48.984;8.548;2023-04-10T06:09:23;100465.47;;;4.89;86.98
32298;BME280;18782;48.984;8.548;2023-04-10T06:11:52;100461.75;;;4.98;86.96
32298;BME280;18782;48.984;8.548;2023-04-10T06:14:21;100469.13;;;5.09;86.14
32298;BME280;18782;48.984;8.548;2023-04-10T06:16:50;100464.66;;;5.21;85.04
32298;BME280;18782;48.984;8.548;2023-04-10T06:19:17;100470.47;;;5.33;84.96
32298;BME280;18782;48.984;8.548;2023-04-10T06:21:45;100466.16;;;5.48;83.00
32298;BME280;18782;48.984;8.548;2023-04-10T06:24:13;100455.78;;;5.62;81.66
32298;BME280;18782;48.984;8.548;2023-04-10T06:26:41;100457.38;;;5.76;80.98
32298;BME280;18782;48.984;8.548;2023-04-10T06:29:10;100455.09;;;5.97;78.15
32298;BME280;18782;48.984;8.548;2023-04-10T06:31:37;100452.72;;;6.18;76.93
32298;BME280;18782;48.984;8.548;2023-04-10T06:34:06;100453.97;;;6.42;73.25
32298;BME280;18782;48.984;8.548;2023-04-10T06:36:36;100449.28;;;6.69;71.49
32298;BME280;18782;48.984;8.548;2023-04-10T06:39:05;100445.69;;;6.84;71.60
32298;BME280;18782;48.984;8.548;2023-04-10T06:41:33;100445.69;;;7.01;70.72
32298;BME280;18782;48.984;8.548;2023-04-10T06:44:13;100442.88;;;7.15;69.57
32298;BME280;18782;48.984;8.548;2023-04-10T06:46:41;100441.00;;;7.30;68.90
32298;BME280;18782;48.984;8.548;2023-04-10T06:49:09;100445.34;;;7.50;66.75
32298;BME280;18782;48.984;8.548;2023-04-10T06:51:36;100450.88;;;7.59;67.41
32298;BME280;18782;48.984;8.548;2023-04-10T06:54:04;100448.38;;;7.80;65.66
32298;BME280;18782;48.984;8.548;2023-04-10T06:56:31;100440.53;;;7.97;65.33
32298;BME280;18782;48.984;8.548;2023-04-10T06:58:59;100447.19;;;8.13;64.63
32298;BME280;18782;48.984;8.548;2023-04-10T07:01:28;100439.75;;;8.19;64.56
32298;BME280;18782;48.984;8.548;2023-04-10T07:03:56;100441.16;;;8.31;64.02
32298;BME280;18782;48.984;8.548;2023-04-10T07:06:23;100445.13;;;8.44;63.60
32298;BME280;18782;48.984;8.548;2023-04-10T07:08:51;100446.69;;;8.61;61.85
32298;BME280;18782;48.984;8.548;2023-04-10T07:11:19;100439.72;;;8.80;59.54
32298;BME280;18782;48.984;8.548;2023-04-10T07:13:47;100437.28;;;8.83;60.48
32298;BME280;18782;48.984;8.548;2023-04-10T07:16:19;100441.50;;;9.03;58.53
32298;BME280;18782;48.984;8.548;2023-04-10T07:18:48;100430.03;;;9.18;58.29
32298;BME280;18782;48.984;8.548;2023-04-10T07:21:16;100434.00;;;9.32;58.19
32298;BME280;18782;48.984;8.548;2023-04-10T07:23:44;100441.22;;;9.42;56.89
32298;BME280;18782;48.984;8.548;2023-04-10T07:26:11;100435.59;;;9.52;57.44
32298;BME280;18782;48.984;8.548;2023-04-10T07:28:39;100431.50;;;9.57;57.83
32298;BME280;18782;48.984;8.548;2023-04-10T07:31:07;100426.78;;;9.70;56.28
32298;BME280;18782;48.984;8.548;2023-04-10T07:33:35;100429.00;;;9.83;56.79
32298;BME280;18782;48.984;8.548;2023-04-10T07:36:06;100433.69;;;9.94;57.33
32298;BME280;18782;48.984;8.548;2023-04-10T07:38:33;100426.22;;;10.02;56.13
32298;BME280;18782;48.984;8.548;2023-04-10T07:41:01;100419.66;;;10.10;55.54
32298;BME280;18782;48.984;8.548;2023-04-10T07:43:28;100416.34;;;10.14;55.30
32298;BME280;18782;48.984;8.548;2023-04-10T07:45:56;100418.66;;;10.31;53.92
32298;BME280;18782;48.984;8.548;2023-04-10T07:48:24;100421.44;;;10.38;54.76
32298;BME280;18782;48.984;8.548;2023-04-10T07:50:52;100424.28;;;10.46;54.38
32298;BME280;18782;48.984;8.548;2023-04-10T07:53:20;100424.59;;;10.55;55.13
32298;BME280;18782;48.984;8.548;2023-04-10T07:55:48;100413.81;;;10.67;53.91
32298;BME280;18782;48.984;8.548;2023-04-10T07:58:16;100418.56;;;10.82;53.31
32298;BME280;18782;48.984;8.548;2023-04-10T08:00:44;100411.03;;;10.88;53.01
32298;BME280;18782;48.984;8.548;2023-04-10T08:03:11;100401.91;;;10.99;53.73
32298;BME280;18782;48.984;8.548;2023-04-10T08:05:39;100402.38;;;11.14;51.67
32298;BME280;18782;48.984;8.548;2023-04-10T08:08:07;100408.03;;;11.33;49.46
32298;BME280;18782;48.984;8.548;2023-04-10T08:10:36;100401.41;;;11.41;50.73
32298;BME280;18782;48.984;8.548;2023-04-10T08:13:04;100418.88;;;11.51;49.59
32298;BME280;18782;48.984;8.548;2023-04-10T08:15:32;100415.94;;;11.69;45.71
32298;BME280;18782;48.984;8.548;2023-04-10T08:18:00;100413.94;;;11.89;44.69
32298;BME280;18782;48.984;8.548;2023-04-10T08:20:27;100409.19;;;12.06;44.13
32298;BME280;18782;48.984;8.548;2023-04-10T08:22:55;100401.97;;;12.25;43.98
32298;BME280;18782;48.984;8.548;2023-04-10T08:25:31;100406.59;;;12.37;43.18
32298;BME280;18782;48.984;8.548;2023-04-10T08:28:00;100406.88;;;12.49;43.19
32298;BME280;18782;48.984;8.548;2023-04-10T08:30:28;100406.41;;;12.67;41.14
32298;BME280;18782;48.984;8.548;2023-04-10T08:32:55;100401.38;;;12.73;41.31
32298;BME280;18782;48.984;8.548;2023-04-10T08:35:23;100410.19;;;12.82;41.31
32298;BME280;18782;48.984;8.548;2023-04-10T08:37:51;100405.16;;;12.88;40.88
32298;BME280;18782;48.984;8.548;2023-04-10T08:40:39;100406.16;;;12.94;41.21
32298;BME280;18782;48.984;8.548;2023-04-10T08:43:08;100402.94;;;13.04;40.66
32298;BME280;18782;48.984;8.548;2023-04-10T08:45:35;100392.91;;;13.18;40.81
32298;BME280;18782;48.984;8.548;2023-04-10T08:48:04;100383.66;;;13.26;40.25
32298;BME280;18782;48.984;8.548;2023-04-10T08:50:33;100385.44;;;13.30;39.82
32298;BME280;18782;48.984;8.548;2023-04-10T08:53:06;100376.97;;;13.38;40.48
32298;BME280;18782;48.984;8.548;2023-04-10T08:55:34;100383.25;;;13.52;39.63
32298;BME280;18782;48.984;8.548;2023-04-10T08:58:03;100373.16;;;13.63;39.04
32298;BME280;18782;48.984;8.548;2023-04-10T09:00:34;100368.97;;;13.71;39.52
32298;BME280;18782;48.984;8.548;2023-04-10T09:03:04;100377.97;;;13.90;38.90
32298;BME280;18782;48.984;8.548;2023-04-10T09:05:34;100374.63;;;13.97;38.58
32298;BME280;18782;48.984;8.548;2023-04-10T09:08:02;100366.25;;;14.13;38.44
32298;BME280;18782;48.984;8.548;2023-04-10T09:10:29;100372.38;;;14.17;37.76
32298;BME280;18782;48.984;8.548;2023-04-10T09:12:57;100373.34;;;14.23;38.08
32298;BME280;18782;48.984;8.548;2023-04-10T09:15:25;100358.03;;;14.35;38.14
32298;BME280;18782;48.984;8.548;2023-04-10T09:17:59;100353.91;;;14.48;37.06
32298;BME280;18782;48.984;8.548;2023-04-10T09:20:29;100350.63;;;14.58;37.08
32298;BME280;18782;48.984;8.548;2023-04-10T09:22:57;100349.88;;;14.67;37.63
32298;BME280;18782;48.984;8.548;2023-04-10T09:25:29;100341.41;;;14.80;36.85
32298;BME280;18782;48.984;8.548;2023-04-10T09:28:01;100336.31;;;14.86;36.23
32298;BME280;18782;48.984;8.548;2023-04-10T09:30:36;100324.41;;;15.01;36.84
32298;BME280;18782;48.984;8.548;2023-04-10T09:33:23;100322.94;;;15.21;36.65
32298;BME280;18782;48.984;8.548;2023-04-10T09:35:53;100316.13;;;15.32;35.97
32298;BME280;18782;48.984;8.548;2023-04-10T09:38:23;100311.88;;;15.39;36.19
32298;BME280;18782;48.984;8.548;2023-04-10T09:40:51;100320.63;;;15.47;35.45
32298;BME280;18782;48.984;8.548;2023-04-10T09:43:22;100309.47;;;15.56;34.95
32298;BME280;18782;48.984;8.548;2023-04-10T09:45:51;100302.69;;;15.70;34.93
32298;BME280;18782;48.984;8.548;2023-04-10T09:48:22;100296.81;;;15.88;35.91
32298;BME280;18782;48.984;8.548;2023-04-10T09:50:50;100291.63;;;15.89;33.97
32298;BME280;18782;48.984;8.548;2023-04-10T09:53:19;100292.63;;;16.04;33.86
32298;BME280;18782;48.984;8.548;2023-04-10T09:55:48;100284.06;;;16.17;33.92
32298;BME280;18782;48.984;8.548;2023-04-10T09:58:17;100287.59;;;16.28;34.12
32298;BME280;18782;48.984;8.548;2023-04-10T10:00:47;100291.22;;;16.55;33.71
32298;BME280;18782;48.984;8.548;2023-04-10T10:03:16;100281.72;;;16.57;32.51
32298;BME280;18782;48.984;8.548;2023-04-10T10:05:47;100275.63;;;16.55;32.54
32298;BME280;18782;48.984;8.548;2023-04-10T10:08:15;100272.25;;;16.66;32.79
32298;BME280;18782;48.984;8.548;2023-04-10T10:10:45;100272.34;;;16.89;33.52
32298;BME280;18782;48.984;8.548;2023-04-10T10:13:15;100268.94;;;16.97;32.30
32298;BME280;18782;48.984;8.548;2023-04-10T10:15:50;100258.53;;;17.06;31.92
32298;BME280;18782;48.984;8.548;2023-04-10T10:18:23;100256.84;;;17.08;31.38
32298;BME280;18782;48.984;8.548;2023-04-10T10:20:53;100261.09;;;16.95;31.28
32298;BME280;18782;48.984;8.548;2023-04-10T10:23:21;100239.47;;;17.04;31.92
32298;BME280;18782;48.984;8.548;2023-04-10T10:25:51;100249.84;;;17.01;32.07
32298;BME280;18782;48.984;8.548;2023-04-10T10:28:20;100254.25;;;17.18;32.04
32298;BME280;18782;48.984;8.548;2023-04-10T10:30:50;100241.28;;;17.47;31.86
32298;BME280;18782;48.984;8.548;2023-04-10T10:33:18;100243.00;;;17.48;30.86
32298;BME280;18782;48.984;8.548;2023-04-10T10:35:46;100240.47;;;17.82;32.58
32298;BME280;18782;48.984;8.548;2023-04-10T10:38:17;100239.59;;;18.08;33.47
32298;BME280;18782;48.984;8.548;2023-04-10T10:40:54;100234.34;;;18.11;31.46
32298;BME280;18782;48.984;8.548;2023-04-10T10:43:26;100224.78;;;18.25;30.21
32298;BME280;18782;48.984;8.548;2023-04-10T10:46:02;100226.50;;;18.31;30.47
32298;BME280;18782;48.984;8.548;2023-04-10T10:48:30;100218.63;;;18.50;29.65
32298;BME280;18782;48.984;8.548;2023-04-10T10:50:59;100217.69;;;18.76;30.47
32298;BME280;18782;48.984;8.548;2023-04-10T10:53:34;100214.03;;;19.04;32.99
32298;BME280;18782;48.984;8.548;2023-04-10T10:56:33;100208.63;;;19.35;31.01
32298;BME280;18782;48.984;8.548;2023-04-10T10:59:02;100207.69;;;19.45;29.16
32298;BME280;18782;48.984;8.548;2023-04-10T11:01:29;100202.38;;;19.61;29.21
32298;BME280;18782;48.984;8.548;2023-04-10T11:03:57;100209.31;;;19.65;27.64
32298;BME280;18782;48.984;8.548;2023-04-10T11:06:49;100198.97;;;19.49;27.60
32298;BME280;18782;48.984;8.548;2023-04-10T11:09:48;100193.78;;;19.43;26.92
32298;BME280;18782;48.984;8.548;2023-04-10T11:12:18;100202.97;;;19.92;28.78
32298;BME280;18782;48.984;8.548;2023-04-10T11:14:56;100192.09;;;20.30;26.61
32298;BME280;18782;48.984;8.548;2023-04-10T11:17:45;100197.91;;;20.59;27.18
32298;BME280;18782;48.984;8.548;2023-04-10T11:20:14;100201.09;;;20.83;25.66
32298;BME280;18782;48.984;8.548;2023-04-10T11:23:07;100185.97;;;21.02;25.34
32298;BME280;18782;48.984;8.548;2023-04-10T11:25:48;100180.28;;;21.35;27.20
32298;BME280;18782;48.984;8.548;2023-04-10T11:28:36;100191.94;;;21.11;24.72
32298;BME280;18782;48.984;8.548;2023-04-10T11:31:15;100175.59;;;20.99;24.46
32298;BME280;18782;48.984;8.548;2023-04-10T11:33:44;100167.28;;;21.28;23.73
32298;BME280;18782;48.984;8.548;2023-04-10T11:36:14;100162.16;;;21.19;23.32
32298;BME280;18782;48.984;8.548;2023-04-10T11:38:56;100155.50;;;20.99;22.81
32298;BME280;18782;48.984;8.548;2023-04-10T11:41:29;100152.25;;;21.42;23.20
32298;BME280;18782;48.984;8.548;2023-04-10T11:43:58;100151.47;;;21.85;23.68
32298;BME280;18782;48.984;8.548;2023-04-10T11:46:27;100150.75;;;22.25;22.68
32298;BME280;18782;48.984;8.548;2023-04-10T11:48:57;100149.53;;;21.96;21.77
32298;BME280;18782;48.984;8.548;2023-04-10T11:51:25;100152.63;;;22.61;22.95
32298;BME280;18782;48.984;8.548;2023-04-10T11:54:03;100145.38;;;22.73;21.29
32298;BME280;18782;48.984;8.548;2023-04-10T11:56:33;100133.75;;;22.83;20.53
32298;BME280;18782;48.984;8.548;2023-04-10T11:59:01;100137.28;;;23.21;20.83
32298;BME280;18782;48.984;8.548;2023-04-10T12:01:33;100143.88;;;23.37;20.74
32298;BME280;18782;48.984;8.548;2023-04-10T12:04:01;100139.97;;;23.53;21.52
32298;BME280;18782;48.984;8.548;2023-04-10T12:06:29;100122.38;;;23.89;22.37
32298;BME280;18782;48.984;8.548;2023-04-10T12:08:57;100125.56;;;24.32;20.52
32298;BME280;18782;48.984;8.548;2023-04-10T12:11:25;100115.53;;;24.46;20.78
32298;BME280;18782;48.984;8.548;2023-04-10T12:13:56;100119.56;;;22.93;21.10
32298;BME280;18782;48.984;8.548;2023-04-10T12:16:24;100104.44;;;22.24;21.33
32298;BME280;18782;48.984;8.548;2023-04-10T12:18:52;100098.22;;;22.68;21.57
32298;BME280;18782;48.984;8.548;2023-04-10T12:21:21;100095.22;;;23.22;21.42
32298;BME280;18782;48.984;8.548;2023-04-10T12:23:48;100103.28;;;23.50;20.91
32298;BME280;18782;48.984;8.548;2023-04-10T12:26:17;100090.06;;;23.17;20.52
32298;BME280;18782;48.984;8.548;2023-04-10T12:28:50;100092.03;;;23.43;20.05
32298;BME280;18782;48.984;8.548;2023-04-10T12:31:26;100088.09;;;23.94;19.84
32298;BME280;18782;48.984;8.548;2023-04-10T12:33:55;100077.94;;;24.11;20.42
32298;BME280;18782;48.984;8.548;2023-04-10T12:36:24;100083.00;;;24.77;20.73
32298;BME280;18782;48.984;8.548;2023-04-10T12:38:55;100074.63;;;24.64;19.22
32298;BME280;18782;48.984;8.548;2023-04-10T12:41:24;100065.69;;;25.24;19.96
32298;BME280;18782;48.984;8.548;2023-04-10T12:43:53;100070.31;;;25.67;20.53
32298;BME280;18782;48.984;8.548;2023-04-10T12:46:34;100061.78;;;26.09;19.79
32298;BME280;18782;48.984;8.548;2023-04-10T12:49:09;100056.28;;;26.15;19.61
32298;BME280;18782;48.984;8.548;2023-04-10T12:51:41;100066.22;;;26.32;18.42
32298;BME280;18782;48.984;8.548;2023-04-10T12:54:09;100055.19;;;26.66;18.32
32298;BME280;18782;48.984;8.548;2023-04-10T12:56:40;100050.31;;;26.34;17.75
32298;BME280;18782;48.984;8.548;2023-04-10T12:59:08;100049.84;;;26.46;18.15
32298;BME280;18782;48.984;8.548;2023-04-10T13:01:37;100046.19;;;26.94;18.03
32298;BME280;18782;48.984;8.548;2023-04-10T13:04:05;100046.13;;;26.28;17.70
32298;BME280;18782;48.984;8.548;2023-04-10T13:06:41;100045.28;;;26.04;18.23
32298;BME280;18782;48.984;8.548;2023-04-10T13:09:09;100042.56;;;25.57;18.84
32298;BME280;18782;48.984;8.548;2023-04-10T13:11:37;100041.28;;;26.39;18.23
32298;BME280;18782;48.984;8.548;2023-04-10T13:14:05;100041.72;;;25.82;17.68
32298;BME280;18782;48.984;8.548;2023-04-10T13:16:32;100036.44;;;25.57;18.69
32298;BME280;18782;48.984;8.548;2023-04-10T13:19:01;100030.44;;;25.53;18.62
32298;BME280;18782;48.984;8.548;2023-04-10T13:21:29;100029.00;;;25.93;19.76